createdAt,value
2018-05-18T00:01:59.340Z,10.30
2018-05-18T00:04:29.121Z,10.30
2018-05-18T00:06:58.105Z,10.30
2018-05-18T00:09:28.042Z,10.30
2018-05-18T00:11:58.652Z,10.30
2018-05-18T00:14:27.687Z,10.30
2018-05-18T00:16:56.909Z,10.20
2018-05-18T00:19:30.829Z,10.10
2018-05-18T00:22:00.682Z,10.10
2018-05-18T00:24:30.286Z,10.00
2018-05-18T00:26:59.422Z,10.00
2018-05-18T00:29:29.471Z,10.00
2018-05-18T00:31:59.808Z,10.00
2018-05-18T00:34:28.991Z,9.90
2018-05-18T00:37:00.185Z,10.00
2018-05-18T00:39:29.342Z,10.00
2018-05-18T00:41:58.508Z,10.00
2018-05-18T00:44:27.992Z,10.10
2018-05-18T00:46:57.243Z,10.20
2018-05-18T00:49:26.446Z,10.30
2018-05-18T00:51:55.723Z,10.40
2018-05-18T00:54:24.927Z,10.40
2018-05-18T00:56:54.375Z,10.30
2018-05-18T00:59:23.539Z,10.30
2018-05-18T01:01:52.789Z,10.30
2018-05-18T01:04:22.337Z,10.40
2018-05-18T01:06:53.005Z,10.50
2018-05-18T01:09:22.766Z,10.50
2018-05-18T01:11:51.911Z,10.50
2018-05-18T01:14:20.972Z,10.50
2018-05-18T01:16:50.347Z,10.50
2018-05-18T01:19:20.227Z,10.60
2018-05-18T01:21:49.293Z,10.60
2018-05-18T01:24:18.669Z,10.70
2018-05-18T01:26:47.735Z,10.80
2018-05-18T01:29:18.354Z,10.80
2018-05-18T01:31:48.112Z,10.90
2018-05-18T01:34:17.133Z,10.80
2018-05-18T01:36:46.768Z,10.80
2018-05-18T01:39:15.959Z,10.70
2018-05-18T01:41:45.598Z,10.70
2018-05-18T01:44:15.966Z,10.50
2018-05-18T01:46:45.308Z,10.50
2018-05-18T01:49:18.081Z,10.60
2018-05-18T01:51:47.407Z,10.60
2018-05-18T01:54:17.372Z,10.70
2018-05-18T01:56:47.064Z,10.70
2018-05-18T01:59:16.244Z,10.60
2018-05-18T02:01:45.743Z,10.70
2018-05-18T02:04:15.752Z,10.70
2018-05-18T02:06:45.844Z,10.70
2018-05-18T02:09:15.676Z,10.70
2018-05-18T02:11:45.497Z,10.60
2018-05-18T02:14:15.236Z,10.60
2018-05-18T02:16:44.227Z,10.60
2018-05-18T02:19:13.292Z,10.50
2018-05-18T02:21:43.262Z,10.50
2018-05-18T02:24:12.480Z,10.50
2018-05-18T02:26:42.098Z,10.50
2018-05-18T02:29:12.135Z,10.60
2018-05-18T02:31:42.103Z,10.50
2018-05-18T02:34:11.229Z,10.40
2018-05-18T02:36:41.084Z,10.40
2018-05-18T02:39:10.657Z,10.40
2018-05-18T02:41:40.711Z,10.30
2018-05-18T02:44:09.832Z,10.30
2018-05-18T02:46:39.318Z,10.30
2018-05-18T02:49:08.449Z,10.20
2018-05-18T02:51:37.448Z,10.30
2018-05-18T02:54:07.273Z,10.50
2018-05-18T02:56:36.246Z,10.50
2018-05-18T02:59:06.482Z,10.40
2018-05-18T03:01:35.808Z,10.40
2018-05-18T03:04:06.312Z,10.40
2018-05-18T03:06:36.471Z,10.40
2018-05-18T03:09:06.725Z,10.40
2018-05-18T03:11:36.059Z,10.40
2018-05-18T03:14:05.364Z,10.30
2018-05-18T03:16:35.079Z,10.30
2018-05-18T03:19:04.274Z,10.20
2018-05-18T03:21:34.830Z,10.20
2018-05-18T03:24:04.667Z,10.30
2018-05-18T03:26:33.824Z,10.20
2018-05-18T03:29:03.410Z,10.20
2018-05-18T03:31:32.579Z,10.20
2018-05-18T03:34:01.773Z,10.10
2018-05-18T03:36:31.069Z,10.20
2018-05-18T03:39:00.326Z,10.20
2018-05-18T03:41:29.923Z,10.20
2018-05-18T03:43:59.216Z,10.40
2018-05-18T03:46:29.421Z,10.40
2018-05-18T03:48:58.881Z,10.50
2018-05-18T03:51:28.846Z,10.40
2018-05-18T03:53:57.900Z,10.40
2018-05-18T03:56:28.851Z,10.30
2018-05-18T03:58:59.394Z,10.30
2018-05-18T04:01:37.720Z,10.40
2018-05-18T04:06:18.761Z,10.40
2018-05-18T04:08:50.934Z,10.50
2018-05-18T04:11:21.051Z,10.40
2018-05-18T04:13:51.022Z,10.40
2018-05-18T04:16:20.311Z,10.40
2018-05-18T04:18:49.789Z,10.50
2018-05-18T04:21:19.332Z,10.60
2018-05-18T04:23:48.511Z,10.60
2018-05-18T04:26:17.845Z,10.70
2018-05-18T04:28:46.895Z,10.50
2018-05-18T04:31:16.113Z,10.40
2018-05-18T04:33:46.248Z,10.40
2018-05-18T04:36:15.479Z,10.30
2018-05-18T04:38:45.714Z,10.20
2018-05-18T04:41:15.475Z,10.20
2018-05-18T04:43:44.622Z,10.20
2018-05-18T04:46:13.831Z,10.10
2018-05-18T04:48:43.220Z,10.10
2018-05-18T04:51:12.783Z,10.10
2018-05-18T04:53:42.056Z,10.20
2018-05-18T04:56:11.048Z,10.30
2018-05-18T04:58:39.972Z,10.40
2018-05-18T05:01:09.321Z,10.30
2018-05-18T05:03:38.736Z,10.20
2018-05-18T05:06:08.020Z,10.20
2018-05-18T05:08:37.852Z,10.10
2018-05-18T05:11:06.933Z,10.10
2018-05-18T05:13:36.124Z,10.00
2018-05-18T05:16:06.464Z,10.00
2018-05-18T05:18:37.208Z,10.00
2018-05-18T05:21:06.303Z,10.00
2018-05-18T05:23:36.320Z,10.10
2018-05-18T05:26:14.003Z,10.10
2018-05-18T05:28:52.126Z,10.20
2018-05-18T05:31:21.613Z,10.30
2018-05-18T05:33:51.884Z,10.30
2018-05-18T05:36:21.805Z,10.20
2018-05-18T05:38:52.365Z,10.30
2018-05-18T05:41:21.556Z,10.20
2018-05-18T05:43:52.825Z,10.20
2018-05-18T05:46:27.672Z,10.10
2018-05-18T05:48:58.577Z,10.00
2018-05-18T05:51:28.154Z,10.10
2018-05-18T05:53:57.545Z,10.00
2018-05-18T05:56:26.961Z,10.00
2018-05-18T05:58:57.100Z,10.20
2018-05-18T06:01:26.893Z,10.30
2018-05-18T06:03:56.544Z,10.40
2018-05-18T06:06:25.925Z,10.50
2018-05-18T06:08:55.388Z,10.40
2018-05-18T06:11:25.744Z,10.50
2018-05-18T06:13:55.554Z,10.50
2018-05-18T06:16:24.790Z,10.60
2018-05-18T06:18:55.303Z,10.70
2018-05-18T06:21:24.539Z,10.90
2018-05-18T06:23:53.711Z,10.80
2018-05-18T06:26:23.492Z,10.70
2018-05-18T06:28:52.853Z,10.80
2018-05-18T06:31:23.083Z,10.90
2018-05-18T06:33:52.512Z,11.10
2018-05-18T06:36:22.496Z,11.10
2018-05-18T06:38:51.690Z,11.10
2018-05-18T06:41:21.136Z,11.30
2018-05-18T06:43:50.937Z,11.50
2018-05-18T06:46:22.660Z,11.80
2018-05-18T06:48:51.837Z,11.70
2018-05-18T06:51:20.947Z,12.00
2018-05-18T06:53:49.997Z,11.70
2018-05-18T06:56:20.395Z,11.80
2018-05-18T06:58:49.490Z,11.90
2018-05-18T07:01:19.508Z,12.10
2018-05-18T07:03:49.599Z,11.70
2018-05-18T07:06:18.740Z,11.70
2018-05-18T07:08:47.991Z,11.50
2018-05-18T07:11:17.240Z,11.90
2018-05-18T07:13:46.714Z,12.10
2018-05-18T07:16:16.842Z,12.40
2018-05-18T07:18:46.907Z,12.10
2018-05-18T07:21:16.174Z,12.10
2018-05-18T07:23:46.050Z,12.40
2018-05-18T07:26:15.701Z,12.40
2018-05-18T07:28:45.361Z,12.50
2018-05-18T07:31:14.800Z,13.00
2018-05-18T07:33:44.803Z,12.90
2018-05-18T07:36:14.216Z,12.90
2018-05-18T07:38:44.554Z,12.60
2018-05-18T07:41:14.941Z,12.40
2018-05-18T07:43:46.538Z,12.20
2018-05-18T07:46:16.622Z,12.20
2018-05-18T07:48:51.616Z,12.50
2018-05-18T07:51:21.022Z,12.30
2018-05-18T07:53:51.225Z,13.10
2018-05-18T07:56:22.043Z,16.60
2018-05-18T07:58:51.975Z,16.60
2018-05-18T08:01:22.326Z,15.80
2018-05-18T08:04:08.352Z,15.90
2018-05-18T08:06:39.412Z,15.90
2018-05-18T08:09:10.504Z,14.40
2018-05-18T08:11:39.995Z,14.40
2018-05-18T08:14:14.438Z,13.60
2018-05-18T08:16:43.935Z,13.60
2018-05-18T08:19:13.605Z,13.80
2018-05-18T08:21:43.116Z,14.00
2018-05-18T08:24:13.123Z,14.80
2018-05-18T08:26:42.567Z,14.90
2018-05-18T08:29:48.295Z,14.80
2018-05-18T08:32:18.460Z,14.20
2018-05-18T08:34:47.577Z,14.20
2018-05-18T08:37:17.591Z,14.50
2018-05-18T08:39:48.240Z,14.70
2018-05-18T08:42:30.028Z,14.30
2018-05-18T08:44:59.698Z,14.50
2018-05-18T08:47:29.837Z,15.00
2018-05-18T08:49:58.913Z,15.80
2018-05-18T08:52:28.518Z,16.80
2018-05-18T08:54:58.398Z,15.70
2018-05-18T08:57:28.403Z,16.30
2018-05-18T09:00:08.171Z,16.20
2018-05-18T09:02:48.832Z,17.70
2018-05-18T09:05:21.084Z,17.70
2018-05-18T09:08:02.361Z,19.60
2018-05-18T09:10:32.940Z,20.00
2018-05-18T09:13:04.759Z,19.90
2018-05-18T09:15:34.226Z,19.70
2018-05-18T09:18:10.334Z,20.20
2018-05-18T09:20:46.911Z,20.40
2018-05-18T09:23:25.009Z,22.20
2018-05-18T09:27:32.061Z,21.60
2018-05-18T09:30:09.203Z,21.60
2018-05-18T09:32:42.295Z,21.50
2018-05-18T09:35:15.405Z,21.80
2018-05-18T09:37:53.070Z,22.50
2018-05-18T09:40:35.336Z,18.90
2018-05-18T09:43:07.329Z,18.90
2018-05-18T09:45:39.269Z,19.70
2018-05-18T09:48:15.737Z,19.00
2018-05-18T09:50:54.865Z,20.50
2018-05-18T09:53:25.768Z,20.50
2018-05-18T09:55:56.531Z,20.40
2018-05-18T09:58:27.095Z,20.30
2018-05-18T10:00:58.436Z,20.10
2018-05-18T10:03:30.479Z,20.60
2018-05-18T10:05:59.659Z,20.60
2018-05-18T10:08:41.741Z,21.50
2018-05-18T10:11:15.125Z,21.40
2018-05-18T10:13:50.023Z,22.00
2018-05-18T10:16:23.421Z,22.20
2018-05-18T10:18:54.169Z,22.30
2018-05-18T10:21:27.817Z,25.20
2018-05-18T10:23:58.595Z,25.20
2018-05-18T10:26:29.783Z,25.70
2018-05-18T10:29:00.578Z,24.30
2018-05-18T10:31:31.758Z,22.80
2018-05-18T10:34:04.049Z,23.10
2018-05-18T10:36:33.948Z,24.30
2018-05-18T10:39:14.792Z,24.80
2018-05-18T10:41:47.501Z,24.00
2018-05-18T10:44:18.870Z,25.00
2018-05-18T10:46:48.626Z,25.30
2018-05-18T10:49:19.158Z,26.00
2018-05-18T10:51:53.241Z,27.10
2018-05-18T10:54:23.158Z,25.50
2018-05-18T10:57:00.607Z,23.70
2018-05-18T10:59:37.418Z,23.80
2018-05-18T11:02:06.987Z,24.30
2018-05-18T11:04:36.091Z,25.10
2018-05-18T11:07:05.550Z,25.10
2018-05-18T11:09:35.290Z,24.40
2018-05-18T11:12:05.916Z,23.00
2018-05-18T11:14:38.613Z,23.00
2018-05-18T11:17:07.712Z,24.10
2018-05-18T11:19:39.056Z,25.00
2018-05-18T11:22:10.991Z,24.70
2018-05-18T11:24:43.980Z,25.30
2018-05-18T11:27:14.480Z,25.70
2018-05-18T11:29:44.239Z,25.60
2018-05-18T11:32:14.711Z,26.10
2018-05-18T11:34:44.889Z,26.00
2018-05-18T11:37:14.855Z,24.40
2018-05-18T11:39:49.940Z,24.90
2018-05-18T11:42:20.082Z,26.20
2018-05-18T11:44:49.470Z,26.30
2018-05-18T11:47:19.480Z,27.10
2018-05-18T11:49:49.869Z,27.30
2018-05-18T11:52:19.776Z,26.70
2018-05-18T11:54:50.766Z,26.10
2018-05-18T11:57:20.176Z,25.50
2018-05-18T11:59:50.255Z,24.70
2018-05-18T12:02:24.352Z,24.70
2018-05-18T12:04:59.825Z,24.70
2018-05-18T12:07:30.107Z,24.60
2018-05-18T12:10:01.233Z,23.90
2018-05-18T12:12:36.614Z,24.00
2018-05-18T12:15:06.214Z,24.40
2018-05-18T12:17:35.505Z,25.50
2018-05-18T12:20:05.444Z,25.40
2018-05-18T12:22:34.629Z,25.50
2018-05-18T12:25:08.241Z,24.60
2018-05-18T12:27:42.983Z,23.40
2018-05-18T12:30:21.081Z,23.20
2018-05-18T12:32:57.735Z,23.20
2018-05-18T12:35:28.537Z,23.20
2018-05-18T12:38:03.649Z,24.10
2018-05-18T12:40:40.937Z,24.10
2018-05-18T12:43:22.833Z,24.30
2018-05-18T12:45:53.353Z,24.30
2018-05-18T12:48:23.357Z,23.70
2018-05-18T12:50:53.497Z,23.70
2018-05-18T12:53:24.575Z,23.70
2018-05-18T12:56:06.320Z,23.70
2018-05-18T12:58:36.149Z,22.90
2018-05-18T13:01:06.765Z,23.00
2018-05-18T13:03:36.959Z,23.70
2018-05-18T13:06:06.579Z,23.70
2018-05-18T13:08:37.066Z,23.90
2018-05-18T13:11:07.277Z,23.30
2018-05-18T13:13:36.779Z,23.90
2018-05-18T13:16:06.953Z,24.60
2018-05-18T13:18:36.596Z,24.10
2018-05-18T13:21:07.295Z,24.40
2018-05-18T13:23:39.035Z,24.40
2018-05-18T13:26:09.607Z,24.70
2018-05-18T13:28:39.341Z,23.50
2018-05-18T13:31:10.946Z,23.70
2018-05-18T13:33:40.507Z,23.40
2018-05-18T13:36:11.592Z,22.30
2018-05-18T13:38:48.815Z,21.10
2018-05-18T13:41:18.965Z,20.50
2018-05-18T13:43:48.750Z,20.20
2018-05-18T13:46:21.248Z,20.30
2018-05-18T13:48:50.503Z,20.50
2018-05-18T13:51:20.557Z,20.20
2018-05-18T13:53:51.275Z,20.10
2018-05-18T13:56:20.843Z,20.10
2018-05-18T13:58:50.387Z,20.30
2018-05-18T14:01:20.738Z,20.10
2018-05-18T14:03:50.368Z,20.00
2018-05-18T14:06:21.022Z,19.70
2018-05-18T14:09:11.847Z,19.80
2018-05-18T14:11:42.193Z,19.90
2018-05-18T14:14:11.695Z,19.80
2018-05-18T14:16:49.102Z,19.80
2018-05-18T14:19:28.583Z,19.70
2018-05-18T14:21:57.901Z,19.50
2018-05-18T14:24:27.060Z,19.60
2018-05-18T14:26:57.862Z,19.40
2018-05-18T14:29:27.952Z,19.20
2018-05-18T14:32:21.071Z,19.70
2018-05-18T14:34:52.312Z,19.70
2018-05-18T14:37:22.479Z,20.10
2018-05-18T14:39:59.963Z,20.00
2018-05-18T14:42:43.537Z,19.80
2018-05-18T14:45:14.101Z,19.80
2018-05-18T14:47:44.918Z,19.90
2018-05-18T14:50:15.337Z,19.90
2018-05-18T14:52:46.614Z,19.60
2018-05-18T14:55:33.107Z,19.40
2018-05-18T14:58:04.481Z,19.40
2018-05-18T15:00:35.603Z,19.90
2018-05-18T15:03:08.892Z,19.90
2018-05-18T15:05:43.802Z,19.90
2018-05-18T15:08:14.448Z,19.80
2018-05-18T15:10:45.677Z,19.70
2018-05-18T15:13:15.908Z,19.40
2018-05-18T15:15:53.640Z,18.80
2018-05-18T15:18:24.137Z,18.60
2018-05-18T15:20:54.477Z,18.60
2018-05-18T15:23:25.448Z,18.80
2018-05-18T15:25:56.392Z,18.70
2018-05-18T15:28:26.323Z,18.70
2018-05-18T15:30:59.255Z,19.20
2018-05-18T15:33:29.789Z,19.20
2018-05-18T15:36:00.513Z,19.30
2018-05-18T15:38:31.846Z,19.30
2018-05-18T15:41:02.644Z,19.10
2018-05-18T15:43:36.609Z,18.90
2018-05-18T15:46:17.380Z,19.00
2018-05-18T15:48:48.079Z,19.00
2018-05-18T15:51:18.100Z,19.00
2018-05-18T15:53:49.691Z,18.30
2018-05-18T15:56:21.724Z,18.30
2018-05-18T15:58:52.208Z,18.40
2018-05-18T16:01:27.316Z,18.60
2018-05-18T16:03:59.363Z,19.00
2018-05-18T16:06:29.108Z,19.20
2018-05-18T16:09:06.007Z,19.40
2018-05-18T16:11:50.190Z,19.20
2018-05-18T16:14:21.069Z,19.20
2018-05-18T16:16:59.215Z,18.90
2018-05-18T16:19:37.494Z,18.70
2018-05-18T16:22:11.901Z,18.70
2018-05-18T16:28:14.482Z,18.90
2018-05-18T16:31:00.408Z,19.10
2018-05-18T16:33:48.318Z,19.10
2018-05-18T16:36:30.541Z,19.10
2018-05-18T16:39:15.578Z,19.20
2018-05-18T16:41:47.644Z,19.30
2018-05-18T16:44:22.322Z,19.30
2018-05-18T16:46:54.660Z,19.20
2018-05-18T16:49:31.427Z,19.20
2018-05-18T16:52:09.205Z,19.30
2018-05-18T16:55:10.252Z,19.40
2018-05-18T16:58:00.278Z,19.40
2018-05-18T17:00:39.014Z,19.00
2018-05-18T17:03:33.075Z,19.00
2018-05-18T17:06:09.637Z,18.80
2018-05-18T17:08:41.789Z,18.70
2018-05-18T17:11:14.887Z,18.40
2018-05-18T17:13:50.359Z,18.20
2018-05-18T17:16:21.346Z,18.20
2018-05-18T17:19:02.280Z,18.20
2018-05-18T17:21:44.613Z,18.20
2018-05-18T17:24:15.160Z,18.30
2018-05-18T17:26:51.688Z,18.30
2018-05-18T17:29:29.023Z,18.20
2018-05-18T17:32:01.837Z,18.00
2018-05-18T17:34:43.755Z,18.10
2018-05-18T17:37:16.126Z,18.00
2018-05-18T17:39:53.378Z,17.80
2018-05-18T17:42:23.962Z,17.60
2018-05-18T17:45:01.169Z,17.60
2018-05-18T17:47:35.039Z,17.40
2018-05-18T17:50:08.348Z,17.40
2018-05-18T17:52:39.967Z,17.20
2018-05-18T17:55:18.475Z,17.20
2018-05-18T17:57:51.626Z,17.40
2018-05-18T18:00:22.765Z,17.40
2018-05-18T18:02:56.904Z,17.50
2018-05-18T18:05:34.108Z,17.50
2018-05-18T18:08:24.696Z,17.30
2018-05-18T18:11:18.183Z,17.40
2018-05-18T18:13:56.521Z,17.30
2018-05-18T18:16:46.404Z,17.20
2018-05-18T18:19:21.936Z,17.20
2018-05-18T18:22:00.785Z,17.40
2018-05-18T18:24:31.250Z,17.30
2018-05-18T18:27:08.777Z,17.30
2018-05-18T18:29:50.243Z,17.30
2018-05-18T18:32:43.213Z,17.30
2018-05-18T18:35:24.797Z,17.40
2018-05-18T18:37:56.395Z,17.40
2018-05-18T18:40:48.012Z,17.40
2018-05-18T18:43:34.561Z,17.40
2018-05-18T18:46:14.795Z,17.50
2018-05-18T18:48:46.724Z,17.60
2018-05-18T18:51:46.543Z,17.70
2018-05-18T18:54:24.890Z,17.70
2018-05-18T18:56:57.580Z,17.70
2018-05-18T18:59:30.194Z,17.60
2018-05-18T19:02:03.711Z,17.40
2018-05-18T19:04:33.304Z,17.30
2018-05-18T19:07:06.055Z,17.20
2018-05-18T19:09:56.240Z,17.10
2018-05-18T19:12:38.151Z,17.10
2018-05-18T19:15:23.117Z,17.20
2018-05-18T19:17:57.192Z,17.30
2018-05-18T19:20:40.158Z,17.50
2018-05-18T19:23:19.327Z,17.40
2018-05-18T19:25:50.441Z,17.30
2018-05-18T19:28:22.698Z,17.30
2018-05-18T19:30:54.829Z,17.30
2018-05-18T19:33:26.300Z,17.30
2018-05-18T19:35:56.799Z,17.30
2018-05-18T19:38:40.193Z,17.10
2018-05-18T19:41:29.160Z,17.00
2018-05-18T19:47:10.510Z,17.00
2018-05-18T19:49:53.441Z,17.00
2018-05-18T19:52:31.810Z,17.00
2018-05-18T19:55:08.973Z,16.90
2018-05-18T19:57:49.782Z,17.00
2018-05-18T20:00:35.715Z,17.00
2018-05-18T20:03:12.737Z,17.00
2018-05-18T20:05:53.640Z,16.90
2018-05-18T20:08:33.508Z,16.80
2018-05-18T20:11:06.358Z,16.80
2018-05-18T20:13:38.712Z,16.70
2018-05-18T20:16:14.199Z,16.80
2018-05-18T20:18:43.764Z,16.90
2018-05-18T20:21:13.528Z,16.80
2018-05-18T20:23:49.661Z,16.70
2018-05-18T20:26:35.657Z,16.80
2018-05-18T20:29:22.633Z,16.70
2018-05-18T20:32:07.933Z,16.60
2018-05-18T20:34:37.701Z,16.50
2018-05-18T20:37:08.684Z,16.40
2018-05-18T20:39:48.803Z,16.30
2018-05-18T20:42:25.123Z,16.30
2018-05-18T20:44:56.060Z,16.30
2018-05-18T20:47:26.709Z,16.20
2018-05-18T20:50:04.037Z,16.30
2018-05-18T20:52:42.851Z,16.30
2018-05-18T20:55:18.500Z,16.20
2018-05-18T20:57:50.772Z,16.00
2018-05-18T21:00:21.297Z,16.10
2018-05-18T21:02:52.409Z,16.20
2018-05-18T21:05:23.917Z,16.20
2018-05-18T21:07:55.295Z,16.20
2018-05-18T21:10:25.172Z,16.10
2018-05-18T21:12:58.361Z,16.10
2018-05-18T21:15:29.802Z,16.10
2018-05-18T21:18:06.641Z,16.00
2018-05-18T21:20:36.573Z,16.00
2018-05-18T21:23:08.077Z,16.00
2018-05-18T21:25:38.364Z,15.90
2018-05-18T21:28:13.561Z,15.90
2018-05-18T21:31:01.102Z,15.90
2018-05-18T21:33:44.267Z,15.80
2018-05-18T21:36:13.906Z,15.80
2018-05-18T21:38:52.346Z,15.70
2018-05-18T21:41:22.251Z,15.70
2018-05-18T21:43:52.237Z,15.60
2018-05-18T21:46:37.877Z,15.70
2018-05-18T21:49:15.875Z,15.80
2018-05-18T21:51:48.823Z,15.80
2018-05-18T21:54:19.282Z,15.80
2018-05-18T21:56:49.641Z,15.70
2018-05-18T22:02:49.455Z,15.30
2018-05-18T22:05:27.617Z,15.00
2018-05-18T22:08:01.747Z,14.70
2018-05-18T22:10:38.860Z,14.70
2018-05-18T22:13:10.724Z,14.70
2018-05-18T22:15:40.274Z,14.60
2018-05-18T22:18:14.388Z,14.40
2018-05-18T22:20:55.596Z,14.40
2018-05-18T22:23:25.855Z,14.40
2018-05-18T22:26:01.085Z,14.30
2018-05-18T22:28:33.395Z,14.30
2018-05-18T22:31:04.211Z,14.20
2018-05-18T22:33:35.719Z,14.20
2018-05-18T22:36:06.462Z,14.20
2018-05-18T22:38:42.556Z,14.00
2018-05-18T22:41:15.688Z,13.90
2018-05-18T22:43:46.979Z,13.80
2018-05-18T22:46:19.444Z,13.90
2018-05-18T22:48:54.495Z,13.70
2018-05-18T22:51:31.088Z,13.70
2018-05-18T22:54:07.255Z,13.60
2018-05-18T22:56:37.622Z,13.60
2018-05-18T22:59:16.552Z,13.50
2018-05-18T23:02:13.303Z,13.50
2018-05-18T23:04:54.053Z,13.40
2018-05-18T23:07:25.808Z,13.40
2018-05-18T23:10:02.119Z,13.30
2018-05-18T23:12:32.181Z,13.30
2018-05-18T23:15:01.836Z,13.30
2018-05-18T23:17:32.278Z,13.20
2018-05-18T23:20:11.211Z,13.10
2018-05-18T23:22:40.893Z,13.10
2018-05-18T23:26:39.627Z,13.00
2018-05-18T23:29:10.197Z,13.00
2018-05-18T23:31:41.824Z,12.80
2018-05-18T23:34:14.813Z,12.70
2018-05-18T23:36:44.859Z,12.70
2018-05-18T23:39:17.153Z,12.80
2018-05-18T23:41:51.120Z,12.80
2018-05-18T23:44:20.847Z,12.80
2018-05-18T23:46:51.255Z,12.60
2018-05-18T23:49:20.769Z,12.60
2018-05-18T23:51:54.666Z,12.60
2018-05-18T23:54:26.897Z,12.60
2018-05-18T23:56:57.635Z,12.60
2018-05-18T23:59:28.039Z,12.50
